Main page
METAR-TAF:

METAR-TAF

Airports :

Corumbá International Airport

Corumbá, Mato Grosso do Sul, Brazil

latitude: 19-05S, longitude: 057-30W, elevation: 130 m

Current weather observation

The report was made 10 hours and 12 minutes ago, at 21:00 UTC
Wind 10 kt from the East/Northeast
Temperature 27°C
Humidity 39%
Pressure 1012 hPa
Visibility 10 km or more
no clouds below 1500 m and no cumulonimbus

METAR: SBCR 122100Z 06010KT CAVOK 27/12 Q1012

Time: 03:12 (07:12 UTC)

Forecast

The report was made 5 hours and 17 minutes ago, at 01:55 UTC
Forecast valid from 13 at 06 UTC to 14 at 06 UTC
Wind 3 kt from the East
Visibility 10 km or more
no clouds below 1500 m and no cumulonimbus
Becoming
from 13 at 10 UTC to 13 at 12 UTC
Wind 6 kt from the North/Northeast
Becoming
from 14 at 01 UTC to 14 at 03 UTC
Wind 3 kt from the East

TAF: SBCR 130155Z 1306/1406 09003KT CAVOK TN15/1310Z TX33/1319Z BECMG 1310/1312 03006KT BECMG 1401/1403 10003KT RMK PGL

Weather observations and forecasts of more than 4000 airports (METAR and TAF reports).

The available stations are represented by yellow and red dots on the map.

Hover mouse over dot to see the name of the station.

Then click to see weather observations and forecasts.

To change the map : click on the green buttons with a black cross to zoom in, on the green button with a dash to zoom out, or on the green arrows for adjacent maps.


METAR-TAF: